Time;durP1;ratioP1;P1;durP2;ratioP2;P2;SDS_P1;SDS_P2;PMS_P1;PMS_P2;Temp;Humidity;BMP_temperature;BMP_pressure;BME280_temperature;BME280_humidity;BME280_pressure;Samples;Min_cycle;Max_cycle;Signal;HPM_P1;HPM_P2
2022/02/26 00:02:25;;;;;;;22.42;6.32;;;0.00;99.90;;;;;;5074617;28;20040;-72
2022/02/26 00:04:51;;;;;;;21.10;7.00;;;0.00;99.90;;;;;;5073405;28;20027;-73
2022/02/26 00:07:17;;;;;;;37.95;7.03;;;0.00;99.90;;;;;;5074655;28;20382;-72
2022/02/26 00:09:43;;;;;;;38.65;6.63;;;0.00;99.90;;;;;;5074667;28;20501;-71
2022/02/26 00:12:09;;;;;;;49.78;7.55;;;0.00;99.90;;;;;;5074515;28;20033;-72
2022/02/26 00:14:35;;;;;;;36.85;7.20;;;0.00;99.90;;;;;;5056446;28;20045;-72
2022/02/26 00:17:01;;;;;;;24.63;6.72;;;0.00;99.90;;;;;;5074442;28;20101;-71
2022/02/26 00:19:26;;;;;;;33.40;7.60;;;0.00;99.90;;;;;;5074426;28;20494;-72
2022/02/26 00:21:52;;;;;;;33.75;7.05;;;0.00;99.90;;;;;;5074315;28;20060;-71
2022/02/26 00:24:17;;;;;;;34.08;7.88;;;-0.10;99.90;;;;;;5056391;28;20386;-72
2022/02/26 00:26:43;;;;;;;34.80;8.07;;;0.10;99.90;;;;;;5055428;28;20024;-72
2022/02/26 00:29:09;;;;;;;21.20;5.93;;;0.20;99.90;;;;;;5072981;28;20032;-71
2022/02/26 00:31:34;;;;;;;36.08;6.65;;;0.20;99.90;;;;;;5073000;28;20424;-71
2022/02/26 00:34:00;;;;;;;19.08;6.18;;;0.10;99.90;;;;;;5074128;28;20032;-71
2022/02/26 00:36:25;;;;;;;35.15;7.82;;;0.00;99.90;;;;;;5072928;28;20112;-71
2022/02/26 00:38:51;;;;;;;32.42;6.63;;;0.00;99.90;;;;;;5072675;28;20081;-71
2022/02/26 00:41:16;;;;;;;25.90;6.10;;;-0.10;99.90;;;;;;5073788;28;20382;-72
2022/02/26 00:43:42;;;;;;;30.67;6.18;;;-0.10;99.90;;;;;;5073849;28;20033;-71
2022/02/26 00:46:08;;;;;;;29.65;6.72;;;-0.20;99.90;;;;;;5072704;28;20021;-72
2022/02/26 00:51:20;;;;;;;36.58;8.15;;;-0.30;99.90;;;;;;5072619;28;20013;-71
2022/02/26 00:53:46;;;;;;;35.78;7.55;;;-0.30;99.90;;;;;;5072456;28;20035;-73
2022/02/26 00:56:11;;;;;;;38.22;8.88;;;-0.30;99.90;;;;;;5055795;28;20396;-71
2022/02/26 00:58:37;;;;;;;42.40;8.60;;;-0.10;99.90;;;;;;5072438;28;20513;-71
2022/02/26 01:01:03;;;;;;;49.63;8.85;;;-0.10;99.90;;;;;;5073551;28;20394;-72
2022/02/26 01:03:28;;;;;;;29.70;7.85;;;0.10;99.90;;;;;;5072324;28;20035;-72
2022/02/26 01:05:54;;;;;;;45.70;7.97;;;0.00;99.90;;;;;;5072362;28;20021;-71
2022/02/26 01:08:20;;;;;;;45.78;8.50;;;-0.10;99.90;;;;;;5072390;28;20028;-72
2022/02/26 01:10:45;;;;;;;27.75;7.38;;;-0.10;99.90;;;;;;5073466;28;20036;-71
2022/02/26 01:13:11;;;;;;;44.88;7.47;;;-0.10;99.90;;;;;;5072594;28;20036;-71
2022/02/26 01:15:36;;;;;;;44.40;8.43;;;0.00;99.90;;;;;;5073424;28;20066;-72
2022/02/26 01:18:02;;;;;;;43.30;8.63;;;0.00;99.90;;;;;;5073429;28;20047;-71
2022/02/26 01:20:28;;;;;;;39.45;8.75;;;-0.10;99.90;;;;;;5073406;28;20434;-72
2022/02/26 01:22:54;;;;;;;49.10;9.52;;;-0.10;99.90;;;;;;5071991;28;20035;-71
2022/02/26 01:25:19;;;;;;;44.45;8.77;;;-0.20;99.90;;;;;;5072152;28;20029;-71
2022/02/26 01:27:45;;;;;;;18.95;6.40;;;-0.20;99.90;;;;;;5073334;28;20134;-71
2022/02/26 01:30:11;;;;;;;27.75;7.40;;;-0.20;99.90;;;;;;5072025;28;20440;-71
2022/02/26 01:32:36;;;;;;;31.13;8.10;;;-0.30;99.90;;;;;;5073357;28;20482;-72
2022/02/26 01:35:03;;;;;;;32.85;8.00;;;-0.30;99.90;;;;;;5073162;28;20036;-71
2022/02/26 01:37:28;;;;;;;44.17;7.82;;;-0.30;99.90;;;;;;5072963;28;20075;-72
2022/02/26 01:39:54;;;;;;;46.40;8.60;;;-0.20;99.90;;;;;;5071874;28;20071;-72
2022/02/26 01:42:21;;;;;;;49.65;7.78;;;-0.10;99.90;;;;;;5072867;28;20045;-71
2022/02/26 01:44:49;;;;;;;55.45;8.50;;;0.00;99.90;;;;;;5071837;28;20500;-72
2022/02/26 01:47:16;;;;;;;33.75;7.97;;;0.00;99.90;;;;;;5071785;28;20036;-72
2022/02/26 01:49:41;;;;;;;39.40;7.00;;;0.00;99.90;;;;;;5071779;28;20028;-71
2022/02/26 01:52:08;;;;;;;39.83;8.55;;;0.10;99.90;;;;;;5055321;28;20390;-72
2022/02/26 01:54:34;;;;;;;33.63;7.88;;;0.20;99.90;;;;;;5071739;28;20451;-71
2022/02/26 01:56:59;;;;;;;46.67;7.40;;;0.20;99.90;;;;;;5071807;28;20024;-71
2022/02/26 01:59:25;;;;;;;42.40;7.50;;;0.10;99.90;;;;;;5072979;28;20395;-72
2022/02/26 02:01:51;;;;;;;36.17;7.65;;;0.10;99.90;;;;;;5072833;28;20029;-72
2022/02/26 02:04:16;;;;;;;42.20;7.72;;;0.20;99.90;;;;;;5071667;28;20025;-71
2022/02/26 02:06:43;;;;;;;36.28;7.78;;;0.20;99.90;;;;;;5071682;28;20032;-72
2022/02/26 02:09:10;;;;;;;42.15;7.47;;;0.20;99.90;;;;;;5071835;28;20071;-72
2022/02/26 02:11:35;;;;;;;38.95;7.75;;;0.10;99.90;;;;;;5072827;28;20034;-72
2022/02/26 02:14:02;;;;;;;26.80;7.07;;;0.00;99.90;;;;;;5072826;28;20503;-72
2022/02/26 02:16:28;;;;;;;44.63;6.45;;;-0.10;99.90;;;;;;5072882;28;20028;-72
2022/02/26 02:18:53;;;;;;;36.10;7.55;;;-0.20;99.90;;;;;;5071654;28;20390;-71
2022/02/26 02:21:20;;;;;;;42.60;8.40;;;-0.30;99.90;;;;;;5071603;28;20078;-71
2022/02/26 02:23:45;;;;;;;40.88;7.97;;;-0.20;99.90;;;;;;5071440;28;20021;-72
2022/02/26 02:26:11;;;;;;;36.65;8.50;;;-0.10;99.90;;;;;;5071493;28;20028;-71
2022/02/26 02:28:38;;;;;;;25.58;7.03;;;-0.20;99.90;;;;;;5072681;28;20493;-72
2022/02/26 02:31:04;;;;;;;34.20;7.63;;;-0.30;99.90;;;;;;5054880;28;20107;-71
2022/02/26 02:33:37;;;;;;;48.00;8.65;;;-0.40;99.90;;;;;;5072569;28;20035;-72
2022/02/26 02:36:03;;;;;;;39.80;7.75;;;-0.50;99.90;;;;;;5072601;28;20025;-72
2022/02/26 02:38:28;;;;;;;43.85;7.55;;;-0.40;99.90;;;;;;5072569;28;20501;-71
2022/02/26 02:40:54;;;;;;;47.10;8.63;;;-0.40;99.90;;;;;;5071245;28;20025;-71
2022/02/26 02:43:19;;;;;;;42.58;8.40;;;-0.40;99.90;;;;;;5072275;28;20040;-71
2022/02/26 02:45:46;;;;;;;54.88;9.55;;;-0.50;99.90;;;;;;5072600;28;20021;-71
2022/02/26 02:48:11;;;;;;;45.25;9.38;;;-0.50;99.90;;;;;;5072500;28;20497;-71
2022/02/26 02:50:37;;;;;;;39.35;9.40;;;-0.50;99.90;;;;;;5074700;28;20137;-72
2022/02/26 02:53:03;;;;;;;34.30;8.50;;;-0.40;99.90;;;;;;5058187;28;20040;-71
2022/02/26 02:55:29;;;;;;;52.67;10.07;;;-0.40;99.90;;;;;;5076043;28;20028;-71
2022/02/26 02:57:55;;;;;;;30.77;8.18;;;-0.50;99.90;;;;;;5076001;28;20024;-72
2022/02/26 03:00:21;;;;;;;37.55;9.02;;;-0.50;99.90;;;;;;5057987;28;20043;-71
2022/02/26 03:02:47;;;;;;;51.60;8.77;;;-0.60;99.90;;;;;;5074505;28;20177;-71
2022/02/26 03:05:14;;;;;;;44.67;9.38;;;-0.70;99.90;;;;;;5075963;28;20103;-72
2022/02/26 03:07:41;;;;;;;41.78;8.98;;;-0.60;99.90;;;;;;5074637;28;20497;-72
2022/02/26 03:10:07;;;;;;;42.00;9.25;;;-0.40;99.90;;;;;;5074597;28;20028;-71
2022/02/26 03:12:33;;;;;;;32.83;7.65;;;-0.40;99.90;;;;;;5075741;28;20027;-71
2022/02/26 03:14:59;;;;;;;43.83;9.25;;;-0.50;99.90;;;;;;5074404;28;20419;-70
2022/02/26 03:17:25;;;;;;;44.42;9.88;;;-0.60;99.90;;;;;;5075672;28;20505;-72
2022/02/26 03:19:50;;;;;;;41.70;9.25;;;-0.70;99.90;;;;;;5074470;28;20029;-72
2022/02/26 03:22:17;;;;;;;51.53;9.77;;;-0.70;99.90;;;;;;5075511;28;20478;-71
2022/02/26 03:24:43;;;;;;;57.40;11.45;;;-0.70;99.90;;;;;;5075511;28;20031;-72
2022/02/26 03:27:09;;;;;;;42.58;11.20;;;-0.50;99.90;;;;;;5057460;28;20131;-71
2022/02/26 03:29:35;;;;;;;40.42;10.77;;;-0.40;99.90;;;;;;5074132;28;20532;-71
2022/02/26 03:32:00;;;;;;;36.92;10.90;;;-0.40;99.90;;;;;;5074230;28;20105;-72
2022/02/26 03:34:26;;;;;;;44.33;9.93;;;-0.40;99.90;;;;;;5074073;28;20020;-72
2022/02/26 03:36:56;;;;;;;44.75;11.57;;;-0.40;99.90;;;;;;5075345;28;20029;-72
2022/02/26 03:39:22;;;;;;;36.30;11.07;;;-0.50;99.90;;;;;;5075290;28;20028;-71
2022/02/26 03:41:48;;;;;;;49.13;11.68;;;-0.50;99.90;;;;;;5074894;28;20070;-71
2022/02/26 03:44:13;;;;;;;47.97;12.43;;;-0.60;99.90;;;;;;5074042;28;20064;-71
2022/02/26 03:46:39;;;;;;;48.88;12.23;;;-0.70;99.90;;;;;;5073956;28;20097;-72
2022/02/26 03:49:05;;;;;;;40.92;10.98;;;-0.60;99.90;;;;;;5075027;28;20024;-71
2022/02/26 03:51:33;;;;;;;61.33;12.23;;;-0.60;99.90;;;;;;5073691;28;20060;-71
2022/02/26 03:53:58;;;;;;;46.30;11.05;;;-0.70;99.90;;;;;;5074999;28;20027;-71
2022/02/26 03:56:24;;;;;;;33.83;10.68;;;-0.70;99.90;;;;;;5074928;28;20100;-72
2022/02/26 03:58:51;;;;;;;48.75;11.25;;;-0.90;99.90;;;;;;5074942;28;20025;-72
2022/02/26 04:01:17;;;;;;;47.10;13.00;;;-0.90;99.90;;;;;;5073704;28;20066;-72
2022/02/26 04:03:43;;;;;;;49.42;13.38;;;-0.90;99.90;;;;;;5073879;28;20056;-71
2022/02/26 04:06:09;;;;;;;50.13;13.32;;;-0.90;99.90;;;;;;5074674;28;20032;-71
2022/02/26 04:08:34;;;;;;;48.72;12.32;;;-0.90;99.90;;;;;;5074663;28;20028;-70
2022/02/26 04:11:00;;;;;;;41.75;12.68;;;-0.90;99.90;;;;;;5073439;28;20031;-70
2022/02/26 04:13:26;;;;;;;34.33;12.30;;;-1.00;99.90;;;;;;5073373;28;20103;-71
2022/02/26 04:15:51;;;;;;;29.90;10.48;;;-1.10;99.90;;;;;;5073246;28;20461;-72
2022/02/26 04:18:17;;;;;;;35.55;11.18;;;-1.20;99.90;;;;;;5073337;28;20025;-71
2022/02/26 04:20:42;;;;;;;52.72;12.52;;;-1.20;99.90;;;;;;5056543;28;20390;-71
2022/02/26 04:23:09;;;;;;;48.55;12.48;;;-1.20;99.90;;;;;;5073127;28;20032;-71
2022/02/26 04:25:35;;;;;;;39.58;14.00;;;-1.20;99.90;;;;;;5074258;28;20078;-72
2022/02/26 04:28:00;;;;;;;61.78;16.60;;;-1.20;99.90;;;;;;5074245;28;20104;-71
2022/02/26 04:30:26;;;;;;;60.88;18.98;;;-1.00;99.90;;;;;;5056251;28;20102;-70
2022/02/26 04:32:51;;;;;;;68.10;18.85;;;-0.90;99.90;;;;;;5074212;28;20028;-71
2022/02/26 04:35:17;;;;;;;56.25;20.92;;;-0.70;99.90;;;;;;5074222;28;20098;-72
2022/02/26 04:37:42;;;;;;;70.43;21.85;;;-0.60;99.90;;;;;;5056149;28;20024;-72
2022/02/26 04:40:10;;;;;;;68.05;21.73;;;-0.50;99.90;;;;;;5072838;28;20066;-72
2022/02/26 04:42:37;;;;;;;55.08;20.55;;;-0.50;99.90;;;;;;5073571;28;20043;-72
2022/02/26 04:45:04;;;;;;;67.32;20.55;;;-0.50;99.90;;;;;;5072766;28;20024;-71
2022/02/26 04:47:29;;;;;;;60.65;19.38;;;-0.50;99.90;;;;;;5073855;28;20016;-71
2022/02/26 04:49:55;;;;;;;67.18;21.63;;;-0.60;99.90;;;;;;5073864;28;20115;-72
2022/02/26 04:52:20;;;;;;;60.05;20.85;;;-0.60;99.90;;;;;;5073778;28;20028;-72
2022/02/26 04:54:46;;;;;;;51.70;20.08;;;-0.60;99.90;;;;;;5072679;28;20465;-71
2022/02/26 04:57:11;;;;;;;54.22;19.50;;;-0.70;99.90;;;;;;5072509;28;20035;-71
2022/02/26 04:59:37;;;;;;;45.00;17.73;;;-0.80;99.90;;;;;;5072444;28;20035;-71
2022/02/26 05:02:03;;;;;;;35.65;15.38;;;-0.90;99.90;;;;;;5072425;28;20028;-71
2022/02/26 05:04:28;;;;;;;44.72;17.05;;;-1.00;99.90;;;;;;5072352;28;20023;-71
2022/02/26 05:06:54;;;;;;;36.05;16.02;;;-1.10;99.90;;;;;;5073629;28;20016;-71
2022/02/26 05:09:19;;;;;;;42.00;16.58;;;-1.20;99.90;;;;;;5073492;28;20023;-71
2022/02/26 05:11:45;;;;;;;49.22;18.05;;;-1.30;99.90;;;;;;5072191;28;20098;-71
2022/02/26 05:14:12;;;;;;;53.90;19.38;;;-1.30;99.90;;;;;;5071922;28;20040;-71
2022/02/26 05:16:37;;;;;;;50.95;18.33;;;-1.30;99.90;;;;;;5073418;28;20043;-71
2022/02/26 05:19:03;;;;;;;41.90;16.83;;;-1.30;99.90;;;;;;5072220;28;20028;-71
2022/02/26 05:21:28;;;;;;;35.15;15.82;;;-1.30;99.90;;;;;;5073418;28;20035;-71
2022/02/26 05:23:54;;;;;;;34.53;15.52;;;-1.30;99.90;;;;;;5073233;28;20028;-71
2022/02/26 05:26:19;;;;;;;31.55;15.35;;;-1.40;99.90;;;;;;5072187;28;20032;-71
2022/02/26 05:28:45;;;;;;;31.48;15.18;;;-1.40;99.90;;;;;;5073389;28;20051;-70
2022/02/26 05:31:10;;;;;;;37.05;15.77;;;-1.50;99.90;;;;;;5071950;28;20070;-71
2022/02/26 05:33:36;;;;;;;52.20;16.90;;;-1.50;99.90;;;;;;5073209;28;20029;-71
2022/02/26 05:36:03;;;;;;;42.95;17.50;;;-1.50;99.90;;;;;;5073225;28;20059;-71
2022/02/26 05:38:29;;;;;;;54.72;16.42;;;-1.60;99.90;;;;;;5055195;28;20031;-71
2022/02/26 05:40:55;;;;;;;46.38;16.13;;;-1.70;99.90;;;;;;5073146;28;20390;-72
2022/02/26 05:43:20;;;;;;;31.13;14.55;;;-1.70;99.90;;;;;;5071740;28;20066;-71
2022/02/26 05:45:46;;;;;;;38.40;15.63;;;-1.80;99.90;;;;;;5073207;28;20013;-71
2022/02/26 05:48:12;;;;;;;40.15;16.70;;;-1.80;99.90;;;;;;5071804;28;20028;-71
2022/02/26 05:50:38;;;;;;;37.22;15.60;;;-1.80;99.90;;;;;;5071911;28;20021;-71
2022/02/26 05:53:03;;;;;;;40.78;17.25;;;-1.80;99.90;;;;;;5072706;28;20453;-71
2022/02/26 05:55:29;;;;;;;40.97;18.17;;;-1.80;99.90;;;;;;5055066;28;20398;-71
2022/02/26 05:57:55;;;;;;;49.25;17.45;;;-1.80;99.90;;;;;;5071667;28;20028;-71
2022/02/26 06:00:21;;;;;;;37.75;17.38;;;-1.80;99.90;;;;;;5071697;28;20028;-72
2022/02/26 06:02:46;;;;;;;51.88;19.13;;;-1.80;99.90;;;;;;5071586;28;20025;-71
2022/02/26 06:05:12;;;;;;;44.53;19.13;;;-1.80;99.90;;;;;;5072883;28;20016;-71
2022/02/26 06:07:37;;;;;;;42.90;17.48;;;-1.80;99.90;;;;;;5072913;28;20025;-72
2022/02/26 06:10:04;;;;;;;47.72;18.42;;;-1.90;99.90;;;;;;5072834;28;20017;-71
2022/02/26 06:12:30;;;;;;;38.95;17.67;;;-1.90;99.90;;;;;;5071726;28;20029;-72
2022/02/26 06:14:56;;;;;;;33.95;16.10;;;-1.90;99.90;;;;;;5054862;28;20127;-71
2022/02/26 06:17:21;;;;;;;62.78;22.27;;;-2.00;99.90;;;;;;5071532;28;20029;-71
2022/02/26 06:19:47;;;;;;;75.72;23.58;;;-1.90;99.90;;;;;;5054796;28;20030;-70
2022/02/26 06:22:13;;;;;;;62.05;24.33;;;-1.80;99.90;;;;;;5072676;28;20078;-71
2022/02/26 06:24:39;;;;;;;49.28;22.23;;;-1.70;99.90;;;;;;5073550;28;20082;-71
2022/02/26 06:27:05;;;;;;;52.65;22.45;;;-1.70;99.90;;;;;;5075270;28;20024;-70
2022/02/26 06:29:30;;;;;;;50.83;23.10;;;-1.70;99.90;;;;;;5075212;28;20024;-72
2022/02/26 06:31:56;;;;;;;49.30;22.77;;;-1.70;99.90;;;;;;5075322;28;20020;-71
2022/02/26 06:34:21;;;;;;;51.92;22.33;;;-1.70;99.90;;;;;;5075307;28;20055;-71
2022/02/26 06:36:47;;;;;;;45.00;21.90;;;-1.50;99.90;;;;;;5076457;28;20074;-71
2022/02/26 06:39:12;;;;;;;52.22;22.90;;;-1.40;99.90;;;;;;5058413;28;20073;-72
2022/02/26 06:41:38;;;;;;;47.47;22.20;;;-1.20;99.90;;;;;;5074901;28;20052;-72
2022/02/26 06:44:04;;;;;;;67.70;26.02;;;-1.10;99.90;;;;;;5076211;28;20071;-71
2022/02/26 06:46:29;;;;;;;51.78;23.10;;;-1.00;99.90;;;;;;5076166;28;20020;-71
2022/02/26 06:48:55;;;;;;;60.15;25.70;;;-0.70;99.90;;;;;;5075082;28;20020;-71
2022/02/26 06:51:21;;;;;;;75.63;29.38;;;-0.50;99.90;;;;;;5074975;28;20021;-72
2022/02/26 06:53:46;;;;;;;78.90;29.48;;;-0.20;99.90;;;;;;5076169;28;20040;-71
2022/02/26 06:56:12;;;;;;;54.97;25.10;;;0.10;99.90;;;;;;5058088;28;20142;-71
2022/02/26 06:58:38;;;;;;;97.00;31.75;;;0.20;99.90;;;;;;5074692;28;20024;-71
2022/02/26 07:01:04;;;;;;;75.88;29.33;;;0.50;99.90;;;;;;5074811;28;20032;-71
2022/02/26 07:03:30;;;;;;;91.40;28.13;;;0.60;99.90;;;;;;5074503;28;20029;-71
2022/02/26 07:05:55;;;;;;;61.40;24.77;;;0.50;99.90;;;;;;5075902;28;20023;-71
2022/02/26 07:08:21;;;;;;;79.20;27.67;;;0.90;99.90;;;;;;5074524;28;20028;-71
2022/02/26 07:10:47;;;;;;;57.15;21.65;;;1.60;99.90;;;;;;5075690;28;20020;-71
2022/02/26 07:13:12;;;;;;;58.90;20.17;;;2.10;99.90;;;;;;5075507;28;20104;-72
2022/02/26 07:15:38;;;;;;;60.75;20.45;;;2.70;99.90;;;;;;5074221;28;20035;-71
2022/02/26 07:18:04;;;;;;;62.45;18.17;;;2.90;99.90;;;;;;5075473;28;20027;-72
2022/02/26 07:20:29;;;;;;;38.38;16.92;;;3.20;99.90;;;;;;5075613;28;20081;-72
2022/02/26 07:22:55;;;;;;;41.00;16.27;;;3.40;99.90;;;;;;5075401;28;20078;-72
2022/02/26 07:25:20;;;;;;;52.17;17.75;;;3.30;99.90;;;;;;5075580;28;20069;-73
2022/02/26 07:27:46;;;;;;;98.43;22.00;;;4.10;99.90;;;;;;5075355;28;20081;-73
2022/02/26 07:30:12;;;;;;;71.95;18.17;;;5.10;99.90;;;;;;5074182;28;20020;-72
2022/02/26 07:32:37;;;;;;;71.57;18.75;;;5.40;99.90;;;;;;5075392;28;20107;-72
2022/02/26 07:35:04;;;;;;;67.82;21.30;;;5.90;99.90;;;;;;5074976;28;20118;-72
2022/02/26 07:37:30;;;;;;;60.33;19.65;;;6.40;99.90;;;;;;5075234;28;20021;-72
2022/02/26 07:39:56;;;;;;;42.47;17.25;;;6.90;99.90;;;;;;5075210;28;20028;-73
2022/02/26 07:42:21;;;;;;;45.22;19.95;;;7.10;99.90;;;;;;5073757;28;20048;-73
2022/02/26 07:44:47;;;;;;;51.22;22.95;;;7.50;99.90;;;;;;5073901;28;20016;-72
2022/02/26 07:47:12;;;;;;;45.95;21.17;;;7.50;99.90;;;;;;5075078;28;20104;-73
2022/02/26 07:49:38;;;;;;;47.40;19.42;;;8.00;99.90;;;;;;5073742;28;20030;-73
2022/02/26 07:52:04;;;;;;;44.80;18.92;;;8.50;99.90;;;;;;5073773;28;20046;-73
2022/02/26 07:54:29;;;;;;;38.25;17.85;;;8.30;99.90;;;;;;5074929;28;20020;-72
2022/02/26 07:56:55;;;;;;;42.33;20.30;;;7.50;99.90;;;;;;5073590;28;20128;-72
2022/02/26 07:59:20;;;;;;;34.08;17.10;;;6.80;99.90;;;;;;5073781;28;20028;-72
2022/02/26 08:01:46;;;;;;;35.58;13.55;;;7.10;99.90;;;;;;5074736;28;20126;-72
2022/02/26 08:04:12;;;;;;;37.45;14.02;;;7.60;99.90;;;;;;5073411;28;20503;-72
2022/02/26 08:06:37;;;;;;;30.45;11.13;;;7.90;99.90;;;;;;5073521;28;20021;-72
2022/02/26 08:09:03;;;;;;;32.15;14.38;;;7.40;99.90;;;;;;5056722;28;20021;-72
2022/02/26 08:11:30;;;;;;;29.20;12.15;;;8.10;99.90;;;;;;5056764;28;20403;-72
2022/02/26 08:13:57;;;;;;;25.75;11.80;;;8.50;99.90;;;;;;5073394;28;20020;-73
2022/02/26 08:16:24;;;;;;;26.80;12.48;;;8.40;99.90;;;;;;5074548;28;20017;-73
2022/02/26 08:18:49;;;;;;;25.92;11.88;;;9.30;99.90;;;;;;5073250;28;20103;-72
2022/02/26 08:21:15;;;;;;;29.35;11.73;;;9.70;99.90;;;;;;5073155;28;20056;-73
2022/02/26 08:23:40;;;;;;;28.27;12.45;;;9.30;99.90;;;;;;5074243;28;20025;-72
2022/02/26 08:26:06;;;;;;;32.10;12.85;;;9.20;99.90;;;;;;5072974;28;20498;-73
2022/02/26 08:28:32;;;;;;;30.92;14.25;;;8.90;99.90;;;;;;5074270;28;20020;-72
2022/02/26 08:30:57;;;;;;;32.90;14.40;;;8.50;99.90;;;;;;5072995;28;20034;-72
2022/02/26 08:33:23;;;;;;;38.03;15.52;;;8.20;99.90;;;;;;5072965;28;20064;-72
2022/02/26 08:35:48;;;;;;;36.47;15.02;;;7.90;99.90;;;;;;5072976;28;20556;-72
2022/02/26 08:38:14;;;;;;;33.17;13.20;;;8.10;99.90;;;;;;5074027;28;20477;-72
2022/02/26 08:40:39;;;;;;;40.42;13.82;;;8.20;99.90;;;;;;5056167;28;20097;-72
2022/02/26 08:43:05;;;;;;;27.27;11.95;;;8.60;99.90;;;;;;5073677;28;20051;-72
2022/02/26 08:45:31;;;;;;;25.10;11.57;;;8.70;99.90;;;;;;5072855;28;20024;-72
2022/02/26 08:47:56;;;;;;;24.50;12.00;;;8.60;99.90;;;;;;5073185;28;20017;-73
2022/02/26 08:50:23;;;;;;;29.05;10.82;;;8.80;99.90;;;;;;5072653;28;20028;-72
2022/02/26 08:52:49;;;;;;;30.83;10.20;;;9.00;99.90;;;;;;5074013;28;20016;-72
2022/02/26 08:55:15;;;;;;;28.58;10.07;;;9.10;99.90;;;;;;5072508;28;20028;-72
2022/02/26 08:57:40;;;;;;;29.35;9.43;;;9.60;99.90;;;;;;5072371;28;20047;-73
2022/02/26 09:00:08;;;;;;;22.42;8.32;;;9.40;99.90;;;;;;5072450;28;20462;-72
2022/02/26 09:02:34;;;;;;;28.23;8.40;;;9.20;99.90;;;;;;5073519;28;20039;-72
2022/02/26 09:04:59;;;;;;;24.50;8.13;;;9.10;99.90;;;;;;5073572;28;20029;-72
2022/02/26 09:07:25;;;;;;;23.10;7.88;;;9.10;99.90;;;;;;5072321;28;20025;-73
2022/02/26 09:09:51;;;;;;;33.38;8.38;;;9.90;99.90;;;;;;5073522;28;20386;-72
2022/02/26 09:12:18;;;;;;;26.40;8.00;;;10.30;99.90;;;;;;5072089;28;20016;-73
2022/02/26 09:14:43;;;;;;;22.42;7.40;;;10.50;99.90;;;;;;5072079;28;20074;-73
2022/02/26 09:17:09;;;;;;;28.15;8.68;;;10.60;99.90;;;;;;5072196;28;20024;-72
2022/02/26 09:19:36;;;;;;;26.05;7.40;;;10.30;99.90;;;;;;5072019;28;20029;-72
2022/02/26 09:22:04;;;;;;;24.02;7.63;;;10.80;99.90;;;;;;5073290;28;20474;-73
2022/02/26 09:24:31;;;;;;;28.38;8.13;;;11.00;99.90;;;;;;5072103;28;20013;-73
2022/02/26 09:26:57;;;;;;;20.48;6.57;;;11.10;99.90;;;;;;5073356;28;20071;-73
2022/02/26 09:29:23;;;;;;;22.75;7.75;;;10.70;99.90;;;;;;5055172;28;20495;-74
2022/02/26 09:31:50;;;;;;;21.02;6.80;;;11.10;99.90;;;;;;5073284;28;20031;-73
2022/02/26 09:34:18;;;;;;;22.80;7.53;;;11.30;99.90;;;;;;5073182;28;20067;-73
2022/02/26 09:36:45;;;;;;;19.73;6.88;;;11.70;99.90;;;;;;5073099;28;20078;-72
2022/02/26 09:39:10;;;;;;;25.00;7.15;;;11.50;99.90;;;;;;5073137;28;20028;-74
2022/02/26 09:41:37;;;;;;;26.05;8.02;;;11.60;99.90;;;;;;5072815;28;20035;-73
2022/02/26 09:44:03;;;;;;;23.58;7.68;;;12.00;99.90;;;;;;5071826;28;20534;-73
2022/02/26 09:46:29;;;;;;;24.05;6.68;;;11.90;99.90;;;;;;5071946;28;20048;-73
2022/02/26 09:48:54;;;;;;;21.42;6.95;;;12.20;99.90;;;;;;5071878;28;20023;-73
2022/02/26 09:51:21;;;;;;;26.38;7.05;;;12.80;99.90;;;;;;5055001;28;20078;-73
2022/02/26 09:53:47;;;;;;;18.67;6.80;;;12.70;99.90;;;;;;5071732;28;20052;-73
2022/02/26 09:56:12;;;;;;;20.67;6.53;;;11.90;99.90;;;;;;5072975;28;20313;-73
2022/02/26 09:58:39;;;;;;;23.50;6.95;;;12.50;99.90;;;;;;5072646;28;20032;-71
2022/02/26 10:01:04;;;;;;;17.92;5.65;;;12.90;99.90;;;;;;5059123;28;20024;-71
2022/02/26 10:03:34;;;;;;;15.15;5.32;;;12.00;99.90;;;;;;5075753;28;20154;-72
2022/02/26 10:06:19;;;;;;;25.30;5.70;;;12.00;99.90;;;;;;5075817;28;20020;-74
2022/02/26 10:08:51;;;;;;;19.48;5.53;;;12.50;99.90;;;;;;5075567;28;20024;-72
2022/02/26 10:11:34;;;;;;;16.02;4.80;;;12.40;99.90;;;;;;5076842;28;20020;-72
2022/02/26 10:14:06;;;;;;;23.02;6.00;;;13.20;99.90;;;;;;5075622;28;20547;-72
2022/02/26 10:16:53;;;;;;;21.55;5.22;;;13.10;99.90;;;;;;5076749;28;20090;-71
2022/02/26 10:19:22;;;;;;;21.17;4.90;;;13.00;99.90;;;;;;5076648;28;20028;-72
2022/02/26 10:21:48;;;;;;;20.15;4.82;;;13.40;99.90;;;;;;5075385;28;20025;-72
2022/02/26 10:24:15;;;;;;;18.85;4.63;;;13.10;99.90;;;;;;5076461;28;20107;-72
2022/02/26 10:26:45;;;;;;;19.13;4.75;;;13.00;99.90;;;;;;5075411;28;20051;-73
2022/02/26 10:29:15;;;;;;;22.55;4.97;;;12.10;99.90;;;;;;5075488;28;20063;-72
2022/02/26 10:31:46;;;;;;;34.25;18.33;;;11.60;99.90;;;;;;5076441;28;20085;-71
2022/02/26 10:34:38;;;;;;;32.22;17.77;;;11.20;99.90;;;;;;5075222;28;20020;-74
2022/02/26 10:37:19;;;;;;;33.20;18.83;;;10.30;99.90;;;;;;5076298;28;20031;-71
2022/02/26 10:39:50;;;;;;;39.28;19.83;;;9.40;99.90;;;;;;5074997;28;20551;-73
2022/02/26 10:42:23;;;;;;;32.25;20.98;;;9.70;99.90;;;;;;5074736;28;20524;-73
2022/02/26 10:45:10;;;;;;;33.28;20.08;;;9.10;99.90;;;;;;5076249;28;20407;-71
2022/02/26 10:47:38;;;;;;;31.17;17.58;;;9.70;99.90;;;;;;5076022;28;20052;-71
2022/02/26 10:50:24;;;;;;;35.55;18.60;;;9.50;99.90;;;;;;5076060;28;20020;-73
2022/02/26 10:53:06;;;;;;;34.30;19.05;;;9.90;99.90;;;;;;5057987;28;20120;-71
2022/02/26 10:55:52;;;;;;;32.35;19.27;;;10.30;99.90;;;;;;5076018;28;20039;-71
2022/02/26 10:58:20;;;;;;;33.47;19.42;;;9.90;99.90;;;;;;5075796;28;20020;-72
2022/02/26 11:00:46;;;;;;;32.72;17.63;;;10.60;99.90;;;;;;5074624;28;20032;-71
2022/02/26 11:03:12;;;;;;;33.95;18.67;;;10.70;99.90;;;;;;5057640;28;20081;-73
2022/02/26 11:05:38;;;;;;;28.40;17.90;;;10.60;99.90;;;;;;5057581;28;20024;-72
2022/02/26 11:08:05;;;;;;;34.70;17.75;;;10.40;99.90;;;;;;5074367;28;20448;-72
2022/02/26 11:10:31;;;;;;;29.65;14.60;;;10.90;99.90;;;;;;5073616;28;20021;-72
2022/02/26 11:12:58;;;;;;;28.42;13.00;;;10.60;99.90;;;;;;5074367;28;20024;-72
2022/02/26 11:15:24;;;;;;;27.05;11.75;;;11.30;99.90;;;;;;5075482;28;20029;-72
2022/02/26 11:17:50;;;;;;;25.05;12.40;;;11.40;99.90;;;;;;5074059;28;20027;-72
2022/02/26 11:20:21;;;;;;;27.13;13.82;;;10.70;99.90;;;;;;5075537;28;20021;-71
2022/02/26 11:22:47;;;;;;;33.30;15.75;;;10.50;99.90;;;;;;5074183;28;20413;-71
2022/02/26 11:25:13;;;;;;;27.92;13.25;;;10.20;99.90;;;;;;5075468;28;20478;-72
2022/02/26 11:27:39;;;;;;;28.60;13.05;;;11.10;99.90;;;;;;5075458;28;20025;-71
2022/02/26 11:30:06;;;;;;;28.92;11.25;;;11.20;99.90;;;;;;5074235;28;20470;-71
2022/02/26 11:32:38;;;;;;;28.67;12.23;;;11.40;99.90;;;;;;5074173;28;20094;-72
2022/02/26 11:35:26;;;;;;;26.05;10.45;;;11.30;99.90;;;;;;5075313;28;20120;-72
2022/02/26 11:38:03;;;;;;;27.90;9.23;;;10.70;99.90;;;;;;5057430;28;20031;-72
2022/02/26 11:40:30;;;;;;;25.20;9.45;;;10.90;99.90;;;;;;5073890;28;20478;-71
2022/02/26 11:42:56;;;;;;;27.15;9.60;;;11.20;99.90;;;;;;5074985;28;20498;-72
2022/02/26 11:45:28;;;;;;;27.73;8.52;;;10.80;99.90;;;;;;5073949;28;20036;-72
2022/02/26 11:48:05;;;;;;;21.75;6.10;;;10.60;99.90;;;;;;5075128;28;20052;-71
2022/02/26 11:50:33;;;;;;;22.92;5.15;;;10.60;99.90;;;;;;5073756;28;20024;-72
2022/02/26 11:53:16;;;;;;;24.23;6.47;;;10.20;99.90;;;;;;5074972;28;20027;-72
2022/02/26 11:55:54;;;;;;;24.50;6.47;;;9.90;99.90;;;;;;5074900;28;20071;-72
2022/02/26 11:58:30;;;;;;;20.10;5.55;;;10.30;99.90;;;;;;5073542;28;20032;-71
2022/02/26 12:01:05;;;;;;;24.15;6.45;;;10.60;99.90;;;;;;5074842;28;20025;-73
2022/02/26 12:03:45;;;;;;;17.60;4.82;;;10.20;99.90;;;;;;5073515;28;20111;-73
2022/02/26 12:06:16;;;;;;;14.55;4.22;;;10.50;99.90;;;;;;5074663;28;20091;-72
2022/02/26 12:08:46;;;;;;;19.10;5.22;;;10.90;99.90;;;;;;5074620;28;20424;-72
2022/02/26 12:11:22;;;;;;;25.40;5.82;;;10.70;99.90;;;;;;5056771;28;20386;-72
2022/02/26 12:13:51;;;;;;;22.13;6.07;;;10.60;99.90;;;;;;5073503;28;20467;-72
2022/02/26 12:16:28;;;;;;;27.98;6.60;;;10.30;99.90;;;;;;5074337;28;20036;-72
2022/02/26 12:19:01;;;;;;;22.27;6.65;;;10.30;99.90;;;;;;5073381;28;20478;-72
2022/02/26 12:21:34;;;;;;;21.42;6.88;;;9.90;99.90;;;;;;5072809;28;20063;-72
2022/02/26 12:24:08;;;;;;;25.00;7.15;;;10.10;99.90;;;;;;5073482;28;20136;-72
2022/02/26 12:26:53;;;;;;;;;;;10.60;99.90;;;;;;5074654;28;20021;-72
2022/02/26 12:32:25;;;;;;;19.95;5.43;;;10.90;99.90;;;;;;5070464;28;20761;-73
2022/02/26 12:35:08;;;;;;;23.20;6.80;;;10.40;99.90;;;;;;5069051;28;20090;-73
2022/02/26 12:37:37;;;;;;;23.23;5.82;;;10.70;99.90;;;;;;5069222;28;20486;-73
2022/02/26 12:40:08;;;;;;;18.80;4.03;;;10.50;99.90;;;;;;5069157;28;20060;-72
2022/02/26 12:42:36;;;;;;;29.02;5.00;;;10.40;99.90;;;;;;5069056;28;20036;-73